createdAt,value
2017-10-10T00:02:15.753Z,8.03
2017-10-10T00:04:43.231Z,8.40
2017-10-10T00:07:10.743Z,8.63
2017-10-10T00:09:38.231Z,10.13
2017-10-10T00:12:05.721Z,9.60
2017-10-10T00:14:33.280Z,9.80
2017-10-10T00:17:00.751Z,10.53
2017-10-10T00:19:28.223Z,9.60
2017-10-10T00:21:55.729Z,9.90
2017-10-10T00:24:23.209Z,10.20
2017-10-10T00:26:50.728Z,9.50
2017-10-10T00:29:18.221Z,10.20
2017-10-10T00:31:45.699Z,9.13
2017-10-10T00:34:13.207Z,9.60
2017-10-10T00:36:40.693Z,9.83
2017-10-10T00:39:08.159Z,9.00
2017-10-10T00:41:35.678Z,9.40
2017-10-10T00:44:03.170Z,9.20
2017-10-10T00:46:30.678Z,8.70
2017-10-10T00:48:58.150Z,7.17
2017-10-10T00:51:25.690Z,7.97
2017-10-10T00:53:53.173Z,8.00
2017-10-10T00:56:20.634Z,7.03
2017-10-10T00:58:48.146Z,7.67
2017-10-10T01:01:15.617Z,7.20
2017-10-10T01:03:43.102Z,7.63
2017-10-10T01:06:10.573Z,7.50
2017-10-10T01:08:38.043Z,6.43
2017-10-10T01:11:05.503Z,7.03
2017-10-10T01:13:33.002Z,7.37
2017-10-10T01:16:00.474Z,6.80
2017-10-10T01:21:02.151Z,6.50
2017-10-10T01:23:29.639Z,5.80
2017-10-10T01:25:57.128Z,4.90
2017-10-10T01:28:24.629Z,5.30
2017-10-10T01:30:52.127Z,6.20
2017-10-10T01:33:19.726Z,5.40
2017-10-10T01:35:47.211Z,5.90
2017-10-10T01:38:14.690Z,6.33
2017-10-10T01:40:42.180Z,6.13
2017-10-10T01:43:09.704Z,6.53
2017-10-10T01:45:37.189Z,6.57
2017-10-10T01:48:04.750Z,7.03
2017-10-10T01:50:32.247Z,7.53
2017-10-10T01:52:59.709Z,8.20
2017-10-10T01:55:27.166Z,8.20
2017-10-10T01:57:54.658Z,7.93
2017-10-10T02:00:22.234Z,8.83
2017-10-10T02:02:49.701Z,8.57
2017-10-10T02:05:17.176Z,9.60
2017-10-10T02:07:44.632Z,8.33
2017-10-10T02:10:12.116Z,8.80
2017-10-10T02:12:39.646Z,9.40
2017-10-10T02:15:07.113Z,9.97
2017-10-10T02:17:34.573Z,8.90
2017-10-10T02:20:02.068Z,8.40
2017-10-10T02:22:29.550Z,8.73
2017-10-10T02:24:57.015Z,8.63
2017-10-10T02:27:24.488Z,9.57
2017-10-10T02:29:52.004Z,8.70
2017-10-10T02:32:19.490Z,9.60
2017-10-10T02:34:46.986Z,9.87
2017-10-10T02:37:14.447Z,8.87
2017-10-10T02:39:41.940Z,9.50
2017-10-10T02:42:09.453Z,9.67
2017-10-10T02:44:36.958Z,9.43
2017-10-10T02:47:04.698Z,9.27
2017-10-10T02:49:33.066Z,9.03
2017-10-10T02:52:00.556Z,8.93
2017-10-10T02:54:28.040Z,9.77
2017-10-10T02:56:55.563Z,9.60
2017-10-10T02:59:23.043Z,9.80
2017-10-10T03:01:50.533Z,10.63
2017-10-10T03:04:18.016Z,9.67
2017-10-10T03:06:45.492Z,9.73
2017-10-10T03:09:12.949Z,10.47
2017-10-10T03:11:40.450Z,9.43
2017-10-10T03:14:07.928Z,10.20
2017-10-10T03:16:35.382Z,8.80
2017-10-10T03:19:02.867Z,9.87
2017-10-10T03:21:30.348Z,8.83
2017-10-10T03:23:57.870Z,8.13
2017-10-10T03:26:25.355Z,7.30
2017-10-10T03:28:52.826Z,8.90
2017-10-10T03:31:20.304Z,7.83
2017-10-10T03:33:47.814Z,8.13
2017-10-10T03:36:15.265Z,6.97
2017-10-10T03:38:42.728Z,7.17
2017-10-10T03:41:10.224Z,6.53
2017-10-10T03:43:37.683Z,7.23
2017-10-10T03:46:05.147Z,6.77
2017-10-10T03:48:32.632Z,7.20
2017-10-10T03:51:00.097Z,6.63
2017-10-10T03:53:27.561Z,6.83
2017-10-10T03:55:55.034Z,6.40
2017-10-10T03:58:22.492Z,6.20
2017-10-10T04:00:49.960Z,6.20
2017-10-10T04:03:17.448Z,6.17
2017-10-10T04:05:44.938Z,6.70
2017-10-10T04:08:12.407Z,5.87
2017-10-10T04:10:39.915Z,5.80
2017-10-10T04:13:07.368Z,6.30
2017-10-10T04:15:34.851Z,7.73
2017-10-10T04:18:02.322Z,7.30
2017-10-10T04:20:29.777Z,6.83
2017-10-10T04:22:57.256Z,6.83
2017-10-10T04:25:24.759Z,6.33
2017-10-10T04:27:52.232Z,6.67
2017-10-10T04:30:20.001Z,6.40
2017-10-10T04:32:47.478Z,6.87
2017-10-10T04:35:14.948Z,6.90
2017-10-10T04:37:42.422Z,6.30
2017-10-10T04:40:09.914Z,7.57
2017-10-10T04:42:37.427Z,7.60
2017-10-10T04:45:04.924Z,10.57
2017-10-10T04:47:32.409Z,7.20
2017-10-10T04:49:59.882Z,6.40
2017-10-10T04:52:27.394Z,17.23
2017-10-10T04:54:54.885Z,11.13
2017-10-10T04:57:22.349Z,9.20
2017-10-10T04:59:49.824Z,8.03
2017-10-10T05:02:17.325Z,7.77
2017-10-10T05:04:44.824Z,26.57
2017-10-10T05:07:12.291Z,11.33
2017-10-10T05:09:39.778Z,8.00
2017-10-10T05:12:07.253Z,6.67
2017-10-10T05:14:34.794Z,5.93
2017-10-10T05:17:02.355Z,6.17
2017-10-10T05:19:29.829Z,6.40
2017-10-10T05:21:57.418Z,6.20
2017-10-10T05:24:24.913Z,6.20
2017-10-10T05:26:52.361Z,6.07
2017-10-10T05:29:19.881Z,6.00
2017-10-10T05:31:47.370Z,6.97
2017-10-10T05:34:14.841Z,7.10
2017-10-10T05:36:42.313Z,9.17
2017-10-10T05:39:09.817Z,5.60
2017-10-10T05:41:37.288Z,6.20
2017-10-10T05:44:04.746Z,5.50
2017-10-10T05:46:32.234Z,5.50
2017-10-10T05:48:59.732Z,6.17
2017-10-10T05:51:27.236Z,5.43
2017-10-10T05:53:54.731Z,5.53
2017-10-10T05:56:22.292Z,6.40
2017-10-10T05:58:49.739Z,5.47
2017-10-10T06:01:17.229Z,5.50
2017-10-10T06:03:44.702Z,5.03
2017-10-10T06:06:12.165Z,4.70
2017-10-10T06:08:39.648Z,5.20
2017-10-10T06:11:07.126Z,5.20
2017-10-10T06:13:34.593Z,5.10
2017-10-10T06:16:02.101Z,5.70
2017-10-10T06:18:29.557Z,5.00
2017-10-10T06:20:57.029Z,5.80
2017-10-10T06:23:24.548Z,5.33
2017-10-10T06:25:52.035Z,4.60
2017-10-10T06:28:19.510Z,4.30
2017-10-10T06:30:46.982Z,4.27
2017-10-10T06:33:14.482Z,5.00
2017-10-10T06:35:41.964Z,4.20
2017-10-10T06:38:09.445Z,3.70
2017-10-10T06:40:36.913Z,4.00
2017-10-10T06:43:04.411Z,4.07
2017-10-10T06:45:31.882Z,4.50
2017-10-10T06:47:59.351Z,4.13
2017-10-10T06:50:26.812Z,4.50
2017-10-10T06:52:54.299Z,4.10
2017-10-10T06:55:21.836Z,3.67
2017-10-10T06:57:49.348Z,4.50
2017-10-10T07:00:16.839Z,3.40
2017-10-10T07:02:44.298Z,3.87
2017-10-10T07:05:11.756Z,3.23
2017-10-10T07:07:39.258Z,3.90
2017-10-10T07:10:06.731Z,3.40
2017-10-10T07:12:34.224Z,3.50
2017-10-10T07:15:01.712Z,3.43
2017-10-10T07:17:29.221Z,2.97
2017-10-10T07:19:56.790Z,3.00
2017-10-10T07:22:24.299Z,2.83
2017-10-10T07:24:51.774Z,2.90
2017-10-10T07:27:19.321Z,3.30
2017-10-10T07:29:46.805Z,2.80
2017-10-10T07:32:14.285Z,2.60
2017-10-10T07:34:41.767Z,4.33
2017-10-10T07:37:09.257Z,2.03
2017-10-10T07:39:36.736Z,2.10
2017-10-10T07:42:04.203Z,2.10
2017-10-10T07:44:31.677Z,2.17
2017-10-10T07:46:59.232Z,2.13
2017-10-10T07:49:26.730Z,1.77
2017-10-10T07:51:54.229Z,2.30
2017-10-10T07:54:21.950Z,1.70
2017-10-10T07:56:49.457Z,2.40
2017-10-10T07:59:16.927Z,2.50
2017-10-10T08:01:44.410Z,2.00
2017-10-10T08:04:11.935Z,2.23
2017-10-10T08:06:39.405Z,3.70
2017-10-10T08:09:06.892Z,2.20
2017-10-10T08:11:34.369Z,2.10
2017-10-10T08:14:01.829Z,1.93
2017-10-10T08:16:29.364Z,1.70
2017-10-10T08:18:56.870Z,2.10
2017-10-10T08:21:24.356Z,1.70
2017-10-10T08:23:51.856Z,2.07
2017-10-10T08:26:19.358Z,2.53
2017-10-10T08:28:46.865Z,2.17
2017-10-10T08:31:14.365Z,2.10
2017-10-10T08:33:41.862Z,2.37
2017-10-10T08:36:09.363Z,2.40
2017-10-10T08:38:36.990Z,2.20
2017-10-10T08:41:04.485Z,2.90
2017-10-10T08:43:31.977Z,2.53
2017-10-10T08:46:00.199Z,2.40
2017-10-10T08:48:27.715Z,3.20
2017-10-10T08:50:55.214Z,2.27
2017-10-10T08:53:22.693Z,2.03
2017-10-10T08:55:50.204Z,1.90
2017-10-10T08:58:17.697Z,2.00
2017-10-10T09:00:45.190Z,2.30
2017-10-10T09:03:12.669Z,2.30
2017-10-10T09:05:40.152Z,1.93
2017-10-10T09:08:07.665Z,2.10
2017-10-10T09:10:35.168Z,2.40
2017-10-10T09:13:02.652Z,2.60
2017-10-10T09:15:30.133Z,2.30
2017-10-10T09:17:57.630Z,2.20
2017-10-10T09:20:25.128Z,2.50
2017-10-10T09:22:52.664Z,2.10
2017-10-10T09:25:20.151Z,2.47
2017-10-10T09:27:47.688Z,2.03
2017-10-10T09:30:15.217Z,2.80
2017-10-10T09:32:42.708Z,2.63
2017-10-10T09:35:10.250Z,2.93
2017-10-10T09:37:37.795Z,3.23
2017-10-10T09:40:05.258Z,3.03
2017-10-10T09:42:32.752Z,2.90
2017-10-10T09:45:00.223Z,2.80
2017-10-10T09:47:27.700Z,2.63
2017-10-10T09:49:55.197Z,3.20
2017-10-10T09:52:22.667Z,2.80
2017-10-10T09:54:50.139Z,2.60
2017-10-10T09:57:17.685Z,2.50
2017-10-10T09:59:45.154Z,2.30
2017-10-10T10:02:12.642Z,3.40
2017-10-10T10:04:40.166Z,2.90
2017-10-10T10:07:07.649Z,2.60
2017-10-10T10:09:35.127Z,2.90
2017-10-10T10:12:02.663Z,2.50
2017-10-10T10:14:30.216Z,2.90
2017-10-10T10:16:57.672Z,3.00
2017-10-10T10:19:25.163Z,2.50
2017-10-10T10:21:52.638Z,2.53
2017-10-10T10:24:20.120Z,2.50
2017-10-10T10:26:47.622Z,3.50
2017-10-10T10:29:15.086Z,3.07
2017-10-10T10:31:42.562Z,3.40
2017-10-10T10:34:10.058Z,2.67
2017-10-10T10:36:37.542Z,2.70
2017-10-10T10:39:05.435Z,2.90
2017-10-10T10:41:33.287Z,2.40
2017-10-10T10:44:00.765Z,2.60
2017-10-10T10:46:28.239Z,2.03
2017-10-10T10:48:55.727Z,2.60
2017-10-10T10:51:23.609Z,2.27
2017-10-10T10:53:51.077Z,2.40
2017-10-10T10:56:18.570Z,1.90
2017-10-10T10:58:46.052Z,1.90
2017-10-10T11:01:13.518Z,1.70
2017-10-10T11:03:41.026Z,1.80
2017-10-10T11:06:08.500Z,2.03
2017-10-10T11:08:35.995Z,2.20
2017-10-10T11:11:03.473Z,2.17
2017-10-10T11:13:30.956Z,2.00
2017-10-10T11:15:58.432Z,2.10
2017-10-10T11:18:26.852Z,2.60
2017-10-10T11:20:54.364Z,1.97
2017-10-10T11:23:21.893Z,1.70
2017-10-10T11:25:49.384Z,2.43
2017-10-10T11:28:16.879Z,2.43
2017-10-10T11:30:44.368Z,2.10
2017-10-10T11:33:11.878Z,2.50
2017-10-10T11:35:39.360Z,3.33
2017-10-10T11:38:06.871Z,2.10
2017-10-10T11:40:34.399Z,2.50
2017-10-10T11:43:01.892Z,1.80
2017-10-10T11:45:29.405Z,2.10
2017-10-10T11:47:56.894Z,2.27
2017-10-10T11:50:24.368Z,2.33
2017-10-10T11:52:51.859Z,2.50
2017-10-10T11:55:19.354Z,2.30
2017-10-10T11:57:46.847Z,1.80
2017-10-10T12:00:14.319Z,1.47
2017-10-10T12:02:41.862Z,1.70
2017-10-10T12:05:09.350Z,2.00
2017-10-10T12:07:36.856Z,2.10
2017-10-10T12:10:04.427Z,2.17
2017-10-10T12:12:32.001Z,2.10
2017-10-10T12:14:59.518Z,1.97
2017-10-10T12:17:27.084Z,2.20
2017-10-10T12:19:54.574Z,2.63
2017-10-10T12:22:22.082Z,2.73
2017-10-10T12:24:49.579Z,2.33
2017-10-10T12:27:17.296Z,2.33
2017-10-10T12:29:44.782Z,2.33
2017-10-10T12:32:12.272Z,2.40
2017-10-10T12:34:39.764Z,2.27
2017-10-10T12:37:07.254Z,2.27
2017-10-10T12:39:34.762Z,2.00
2017-10-10T12:42:02.258Z,2.13
2017-10-10T12:44:29.738Z,2.10
2017-10-10T12:46:57.327Z,2.10
2017-10-10T12:49:24.815Z,2.20
2017-10-10T12:51:52.303Z,1.80
2017-10-10T12:54:19.790Z,2.13
2017-10-10T12:56:47.317Z,2.03
2017-10-10T12:59:14.814Z,2.50
2017-10-10T13:01:42.289Z,2.33
2017-10-10T13:04:09.819Z,2.30
2017-10-10T13:06:37.318Z,3.03
2017-10-10T13:09:04.851Z,2.50
2017-10-10T13:11:32.338Z,2.70
2017-10-10T13:13:59.849Z,3.10
2017-10-10T13:16:27.353Z,2.53
2017-10-10T13:18:54.933Z,2.97
2017-10-10T13:21:22.420Z,3.03
2017-10-10T13:23:49.936Z,2.80
2017-10-10T13:26:17.420Z,2.93
2017-10-10T13:28:44.938Z,2.70
2017-10-10T13:31:12.462Z,2.77
2017-10-10T13:33:39.989Z,3.27
2017-10-10T13:36:07.495Z,2.70
2017-10-10T13:38:34.981Z,2.70
2017-10-10T13:41:02.488Z,2.87
2017-10-10T13:43:30.022Z,3.00
2017-10-10T13:45:57.557Z,2.63
2017-10-10T13:48:25.066Z,2.40
2017-10-10T13:50:52.570Z,2.97
2017-10-10T13:53:20.354Z,2.93
2017-10-10T13:55:47.842Z,2.53
2017-10-10T13:58:15.911Z,2.63
2017-10-10T14:00:44.010Z,3.10
2017-10-10T14:03:11.738Z,2.57
2017-10-10T14:05:39.229Z,2.77
2017-10-10T14:08:06.751Z,3.07
2017-10-10T14:10:34.215Z,3.20
2017-10-10T14:13:01.684Z,3.03
2017-10-10T14:15:29.157Z,3.20
2017-10-10T14:17:56.639Z,2.60
2017-10-10T14:20:24.128Z,2.30
2017-10-10T14:22:51.682Z,2.30
2017-10-10T14:25:19.141Z,3.17
2017-10-10T14:27:46.591Z,2.37
2017-10-10T14:30:14.223Z,2.57
2017-10-10T14:32:41.712Z,2.90
2017-10-10T14:35:09.193Z,2.97
2017-10-10T14:37:36.732Z,3.30
2017-10-10T14:40:04.221Z,2.63
2017-10-10T14:42:31.735Z,3.10
2017-10-10T14:44:59.231Z,3.93
2017-10-10T14:47:26.697Z,2.43
2017-10-10T14:49:54.200Z,3.17
2017-10-10T14:52:21.670Z,2.63
2017-10-10T14:54:49.189Z,2.70
2017-10-10T14:57:16.681Z,3.10
2017-10-10T14:59:44.236Z,2.77
2017-10-10T15:02:11.787Z,2.97
2017-10-10T15:04:39.380Z,2.63
2017-10-10T15:07:06.855Z,2.43
2017-10-10T15:09:34.672Z,2.67
2017-10-10T15:12:02.379Z,2.20
2017-10-10T15:14:30.584Z,3.13
2017-10-10T15:16:58.060Z,3.30
2017-10-10T15:19:25.533Z,2.73
2017-10-10T15:21:53.047Z,2.30
2017-10-10T15:24:20.544Z,2.77
2017-10-10T15:26:48.017Z,2.63
2017-10-10T15:29:15.548Z,2.57
2017-10-10T15:31:43.044Z,2.50
2017-10-10T15:34:10.568Z,2.33
2017-10-10T15:36:38.093Z,3.00
2017-10-10T15:39:05.574Z,2.87
2017-10-10T15:41:33.079Z,2.90
2017-10-10T15:44:00.601Z,2.60
2017-10-10T15:46:28.170Z,3.10
2017-10-10T15:48:55.662Z,3.90
2017-10-10T15:51:23.162Z,3.17
2017-10-10T15:53:50.701Z,2.63
2017-10-10T15:56:18.245Z,2.57
2017-10-10T15:58:45.754Z,4.97
2017-10-10T16:01:13.338Z,3.70
2017-10-10T16:03:40.852Z,3.80
2017-10-10T16:06:08.388Z,4.13
2017-10-10T16:08:35.910Z,3.23
2017-10-10T16:11:03.413Z,3.10
2017-10-10T16:13:30.921Z,3.00
2017-10-10T16:15:58.549Z,2.97
2017-10-10T16:18:26.350Z,3.80
2017-10-10T16:20:53.941Z,3.80
2017-10-10T16:23:21.470Z,3.40
2017-10-10T16:25:49.093Z,4.30
2017-10-10T16:28:16.606Z,4.40
2017-10-10T16:30:44.177Z,4.10
2017-10-10T16:33:11.731Z,3.33
2017-10-10T16:35:39.298Z,3.17
2017-10-10T16:38:06.996Z,3.40
2017-10-10T16:40:34.508Z,4.13
2017-10-10T16:43:02.006Z,4.00
2017-10-10T16:45:29.505Z,3.53
2017-10-10T16:47:57.014Z,3.93
2017-10-10T16:50:24.513Z,4.80
2017-10-10T16:52:53.218Z,4.97
2017-10-10T16:55:20.776Z,5.20
2017-10-10T16:57:48.351Z,4.13
2017-10-10T17:00:15.858Z,4.87
2017-10-10T17:02:43.396Z,4.30
2017-10-10T17:05:10.879Z,4.63
2017-10-10T17:07:38.406Z,5.10
2017-10-10T17:10:05.926Z,4.30
2017-10-10T17:12:33.426Z,10.90
2017-10-10T17:15:00.941Z,16.30
2017-10-10T17:17:28.454Z,28.33
2017-10-10T17:19:55.976Z,5.00
2017-10-10T17:22:23.528Z,44.63
2017-10-10T17:24:51.043Z,22.50
2017-10-10T17:27:18.558Z,5.97
2017-10-10T17:29:46.070Z,5.70
2017-10-10T17:32:13.572Z,4.60
2017-10-10T17:34:41.086Z,4.40
2017-10-10T17:39:44.998Z,4.03
2017-10-10T17:42:12.515Z,4.23
2017-10-10T17:44:40.089Z,3.90
2017-10-10T17:47:07.610Z,4.33
2017-10-10T17:49:35.132Z,4.67
2017-10-10T17:52:02.651Z,3.70
2017-10-10T17:54:30.168Z,4.77
2017-10-10T17:56:57.748Z,4.43
2017-10-10T17:59:25.318Z,4.63
2017-10-10T18:04:27.867Z,5.37
2017-10-10T18:06:55.418Z,4.73
2017-10-10T18:09:22.982Z,4.87
2017-10-10T18:11:50.610Z,4.37
2017-10-10T18:14:18.113Z,5.07
2017-10-10T18:16:45.639Z,4.97
2017-10-10T18:19:13.191Z,6.00
2017-10-10T18:21:40.782Z,6.83
2017-10-10T18:24:08.279Z,7.40
2017-10-10T18:26:35.853Z,5.83
2017-10-10T18:29:03.351Z,7.50
2017-10-10T18:31:30.869Z,7.37
2017-10-10T18:33:58.415Z,6.33
2017-10-10T18:36:25.961Z,6.47
2017-10-10T18:38:53.468Z,7.40
2017-10-10T18:41:21.052Z,4.90
2017-10-10T18:43:48.573Z,4.60
2017-10-10T18:46:16.132Z,6.00
2017-10-10T18:48:43.669Z,4.63
2017-10-10T18:51:11.186Z,5.20
2017-10-10T18:53:38.682Z,6.20
2017-10-10T18:56:07.575Z,5.03
2017-10-10T18:58:35.091Z,4.70
2017-10-10T19:01:02.614Z,4.60
2017-10-10T19:03:30.203Z,5.50
2017-10-10T19:05:57.733Z,5.37
2017-10-10T19:08:25.327Z,5.13
2017-10-10T19:10:52.877Z,5.00
2017-10-10T19:13:20.425Z,4.63
2017-10-10T19:15:47.954Z,5.40
2017-10-10T19:18:15.551Z,5.43
2017-10-10T19:20:43.020Z,5.43
2017-10-10T19:23:10.542Z,5.63
2017-10-10T19:25:38.220Z,4.20
2017-10-10T19:28:05.880Z,4.10
2017-10-10T19:30:33.434Z,4.30
2017-10-10T19:33:01.031Z,4.90
2017-10-10T19:35:28.620Z,4.47
2017-10-10T19:37:56.152Z,3.77
2017-10-10T19:40:23.954Z,3.73
2017-10-10T19:42:51.571Z,3.70
2017-10-10T19:45:20.310Z,4.23
2017-10-10T19:47:47.950Z,3.80
2017-10-10T19:50:15.631Z,4.13
2017-10-10T19:52:44.395Z,4.03
2017-10-10T19:55:12.956Z,4.77
2017-10-10T19:57:40.750Z,3.90
2017-10-10T20:00:08.289Z,3.90
2017-10-10T20:02:35.856Z,4.60
2017-10-10T20:05:03.377Z,4.00
2017-10-10T20:07:30.958Z,3.83
2017-10-10T20:09:58.510Z,3.30
2017-10-10T20:12:26.158Z,3.10
2017-10-10T20:14:54.001Z,3.30
2017-10-10T20:17:21.657Z,3.40
2017-10-10T20:19:50.251Z,3.70
2017-10-10T20:22:17.764Z,3.57
2017-10-10T20:24:45.589Z,3.70
2017-10-10T20:27:13.679Z,4.20
2017-10-10T20:29:41.241Z,3.87
2017-10-10T20:32:08.733Z,3.60
2017-10-10T20:34:36.285Z,3.30
2017-10-10T20:37:03.772Z,3.10
2017-10-10T20:39:31.557Z,2.93
2017-10-10T20:41:59.174Z,2.87
2017-10-10T20:44:26.759Z,3.53
2017-10-10T20:46:54.265Z,2.80
2017-10-10T20:49:21.775Z,3.43
2017-10-10T20:51:49.758Z,2.83
2017-10-10T20:54:17.637Z,3.30
2017-10-10T20:56:45.129Z,3.20
2017-10-10T20:59:12.740Z,3.10
2017-10-10T21:01:40.232Z,3.03
2017-10-10T21:04:07.755Z,3.37
2017-10-10T21:06:35.235Z,2.70
2017-10-10T21:09:02.744Z,2.80
2017-10-10T21:11:30.294Z,2.23
2017-10-10T21:13:57.762Z,2.70
2017-10-10T21:16:25.257Z,3.07
2017-10-10T21:18:52.733Z,2.63
2017-10-10T21:21:20.197Z,2.53
2017-10-10T21:23:47.843Z,3.30
2017-10-10T21:26:15.320Z,2.90
2017-10-10T21:28:42.804Z,3.47
2017-10-10T21:31:10.280Z,2.70
2017-10-10T21:33:37.762Z,2.70
2017-10-10T21:36:05.217Z,3.40
2017-10-10T21:38:32.717Z,2.97
2017-10-10T21:41:00.185Z,2.83
2017-10-10T21:43:27.695Z,3.00
2017-10-10T21:45:55.165Z,2.53
2017-10-10T21:48:22.636Z,2.67
2017-10-10T21:50:50.131Z,2.67
2017-10-10T21:53:17.654Z,2.83
2017-10-10T21:55:45.128Z,2.73
2017-10-10T21:58:12.593Z,2.77
2017-10-10T22:00:40.104Z,2.60
2017-10-10T22:03:07.594Z,2.53
2017-10-10T22:05:35.049Z,2.90
2017-10-10T22:08:02.523Z,2.97
2017-10-10T22:10:30.004Z,2.30
2017-10-10T22:12:57.481Z,2.53
2017-10-10T22:15:24.956Z,2.90
2017-10-10T22:17:52.416Z,2.87
2017-10-10T22:20:19.977Z,2.90
2017-10-10T22:22:47.458Z,2.73
2017-10-10T22:25:14.903Z,2.50
2017-10-10T22:27:42.373Z,3.77
2017-10-10T22:30:09.864Z,3.07
2017-10-10T22:32:37.363Z,2.50
2017-10-10T22:35:04.813Z,2.63
2017-10-10T22:37:32.270Z,2.60
2017-10-10T22:39:59.727Z,2.70
2017-10-10T22:42:27.181Z,2.37
2017-10-10T22:44:54.712Z,3.00
2017-10-10T22:47:22.217Z,2.83
2017-10-10T22:49:50.189Z,2.83
2017-10-10T22:52:17.684Z,2.50
2017-10-10T22:54:45.195Z,3.13
2017-10-10T22:57:12.696Z,3.27
2017-10-10T22:59:40.231Z,3.37
2017-10-10T23:02:07.776Z,2.77
2017-10-10T23:04:35.264Z,3.00
2017-10-10T23:07:02.768Z,3.20
2017-10-10T23:09:30.251Z,3.20
2017-10-10T23:11:57.721Z,3.87
2017-10-10T23:14:25.353Z,3.73
2017-10-10T23:16:52.847Z,3.37
2017-10-10T23:19:20.329Z,2.90
2017-10-10T23:21:47.820Z,3.23
2017-10-10T23:24:15.288Z,3.10
2017-10-10T23:26:42.781Z,3.07
2017-10-10T23:29:10.253Z,3.00
2017-10-10T23:31:37.807Z,2.50
2017-10-10T23:34:05.300Z,3.60
2017-10-10T23:36:32.782Z,3.37
2017-10-10T23:39:00.243Z,3.50
2017-10-10T23:41:27.739Z,3.70
2017-10-10T23:43:55.280Z,3.87
2017-10-10T23:46:22.782Z,4.37
2017-10-10T23:48:50.242Z,4.00
2017-10-10T23:51:17.717Z,4.43
2017-10-10T23:53:45.181Z,4.50
2017-10-10T23:56:12.657Z,5.00
2017-10-10T23:58:40.157Z,3.13
